Owens Cross Roads, Alabama
Current Conditions -  °F | °C
As of 6:58 PM on Sunday 23 Nov 2014 (Local Time) from KHUA Reporting Station
Overcast Overcast  
Wind Chill: 63°   Ceiling: 2400
Heat Index: 63°   Visibility: 10mi
Dew Point: 58°   Wind: 21mph
Humidity: 83%   Direction: 210°SSW
Pressure: 29.53"   Gusts: 28mph
Location:  34.59°N, 86.46°W
Report Text: KHUA 240058Z AUTO 21018G24KT 10SM BKN024 BKN033 OVC043 17/14 A2953 RMK AO2 PK WND 18029/09 CIG 024V044 BKN024 V SCT SLP998 T01730144
Loading
Personal Weather Stations






























Interactive Weather Map New forecast layout! Learn more

10-Day Weather Forecast

Advertisements
Track Severe Weather on mobile